This is the latest recevied weather packets stored in our database for station/object N4CJR-13. If no packets are shown the sender has not sent any weather packets the latest 1 day(s).
| Time | Temp. | Humidity | Pressure | Rain* | Wind** | Luminosity | Snow |
|---|---|---|---|---|---|---|---|
| 1778021163 | 28.89° C | 29% | 996.7 hPa | - | 1.34 m/s, 181° | - | - |
| 1778020263 | 28.89° C | 30% | 996.6 hPa | - | 1.34 m/s, 210° | - | - |
| 1778019363 | 29.44° C | 31% | 996.6 hPa | - | 1.34 m/s, 172° | - | - |
| 1778018463 | 29.44° C | 31% | 996.5 hPa | - | 1.79 m/s, 232° | - | - |
| 1778017562 | 29.44° C | 28% | 996.6 hPa | - | 1.34 m/s, 157° | - | - |
| 1778016662 | 30° C | 28% | 996.5 hPa | - | 1.34 m/s, 212° | - | - |
| 1778015762 | 30° C | 28% | 996.4 hPa | - | 1.79 m/s, 220° | - | - |
| 1778014863 | 30° C | 29% | 996.4 hPa | - | 1.34 m/s, 171° | - | - |
| 1778013962 | 30.56° C | 30% | 996.4 hPa | - | 1.79 m/s, 231° | - | - |
| 1778013062 | 30.56° C | 32% | 996.4 hPa | - | 1.79 m/s, 206° | - | - |
| 1778012162 | 30.56° C | 31% | 996.4 hPa | - | 1.34 m/s, 199° | - | - |
| 1778011262 | 30.56° C | 31% | 996.5 hPa | - | 1.79 m/s, 212° | - | - |
| 1778010362 | 30.56° C | 32% | 996.6 hPa | - | 1.79 m/s, 173° | - | - |
| 1778009463 | 30° C | 31% | 996.8 hPa | - | 1.34 m/s, 177° | - | - |
| 1778008562 | 30° C | 34% | 996.9 hPa | - | 1.79 m/s, 154° | - | - |
| 1778007662 | 30° C | 33% | 997.2 hPa | - | 1.34 m/s, 236° | - | - |
| 1778006762 | 29.44° C | 32% | 997.5 hPa | - | 1.34 m/s, 162° | - | - |
| 1778005862 | 29.44° C | 36% | 997.7 hPa | - | 1.34 m/s, 159° | - | - |
| 1778004963 | 28.89° C | 35% | 998 hPa | - | 1.79 m/s, 183° | - | - |
| 1778004063 | 28.89° C | 36% | 998.1 hPa | - | 1.79 m/s, 209° | - | - |
| 1778003162 | 28.33° C | 37% | 998.2 hPa | - | 1.34 m/s, 181° | - | - |
| 1778002263 | 27.78° C | 37% | 998.4 hPa | - | 1.34 m/s, 238° | - | - |
| 1778001362 | 27.22° C | 41% | 998.4 hPa | - | 1.34 m/s, 202° | - | - |
| 1778000462 | 26.67° C | 44% | 998.5 hPa | - | 0.89 m/s, 249° | - | - |
| 1777999563 | 26.11° C | 45% | 998.7 hPa | - | 1.34 m/s, 158° | - | - |
* Rain since midnight (hover to see other rain measurements)
** Current wind speed in m/s (hover to see current wind gust speed)